Republic, Ohio
Current Conditions -  °F | °C
As of 5:52 PM on Thursday 20 Nov 2014 (Local Time) from KPCW Reporting Station
Broken Clouds Broken Clouds  
Wind Chill: -10°   Ceiling: 5500
Heat Index: -4°   Visibility: 10mi
Dew Point: -9°   Wind: 13mph
Humidity: 69%   Direction: 220°SW
Pressure: 30.05"   Gusts: NA
Location:  41.12°N, 83.02°W
Report Text: KPCW 202252Z AUTO 22011KT 10SM BKN055 M04/M09 A3005 RMK AO2 T10381088 $
Loading
Personal Weather Stations






























Interactive Weather Map New forecast layout! Learn more

10-Day Weather Forecast

Advertisements
Track Severe Weather on mobile